sensor_id;sensor_type;location;lat;lon;timestamp;P1;durP1;ratioP1;P2;durP2;ratioP2
60098;SDS011;62818;49.394;8.686;2023-02-01T00:00:38;7.57;;;5.20;;
60098;SDS011;62818;49.394;8.686;2023-02-01T00:01:38;5.70;;;4.87;;
60098;SDS011;62818;49.394;8.686;2023-02-01T00:02:39;7.63;;;5.10;;
60098;SDS011;62818;49.394;8.686;2023-02-01T00:04:41;7.53;;;5.15;;
60098;SDS011;62818;49.394;8.686;2023-02-01T00:05:41;7.90;;;5.47;;
60098;SDS011;62818;49.394;8.686;2023-02-01T00:06:42;6.73;;;5.03;;
60098;SDS011;62818;49.394;8.686;2023-02-01T00:07:42;6.30;;;5.47;;
60098;SDS011;62818;49.394;8.686;2023-02-01T00:08:42;9.30;;;5.23;;
60098;SDS011;62818;49.394;8.686;2023-02-01T00:09:43;7.67;;;6.00;;
60098;SDS011;62818;49.394;8.686;2023-02-01T00:10:43;6.93;;;5.20;;
60098;SDS011;62818;49.394;8.686;2023-02-01T00:11:44;6.87;;;5.40;;
60098;SDS011;62818;49.394;8.686;2023-02-01T00:12:45;6.68;;;5.72;;
60098;SDS011;62818;49.394;8.686;2023-02-01T00:13:45;6.23;;;5.50;;
60098;SDS011;62818;49.394;8.686;2023-02-01T00:14:46;5.80;;;4.95;;
60098;SDS011;62818;49.394;8.686;2023-02-01T00:15:48;7.47;;;5.75;;
60098;SDS011;62818;49.394;8.686;2023-02-01T00:16:48;6.87;;;5.60;;
60098;SDS011;62818;49.394;8.686;2023-02-01T00:17:53;7.30;;;5.53;;
60098;SDS011;62818;49.394;8.686;2023-02-01T00:20:08;7.20;;;5.28;;
60098;SDS011;62818;49.394;8.686;2023-02-01T00:21:10;6.13;;;5.53;;
60098;SDS011;62818;49.394;8.686;2023-02-01T00:22:11;6.53;;;5.50;;
60098;SDS011;62818;49.394;8.686;2023-02-01T00:23:12;6.60;;;5.63;;
60098;SDS011;62818;49.394;8.686;2023-02-01T00:24:12;6.80;;;5.13;;
60098;SDS011;62818;49.394;8.686;2023-02-01T00:25:13;6.67;;;5.23;;
60098;SDS011;62818;49.394;8.686;2023-02-01T00:26:15;6.87;;;5.63;;
60098;SDS011;62818;49.394;8.686;2023-02-01T00:27:18;6.50;;;5.50;;
60098;SDS011;62818;49.394;8.686;2023-02-01T00:28:21;6.25;;;5.63;;
60098;SDS011;62818;49.394;8.686;2023-02-01T00:29:21;6.30;;;5.70;;
60098;SDS011;62818;49.394;8.686;2023-02-01T00:30:22;8.47;;;5.90;;
60098;SDS011;62818;49.394;8.686;2023-02-01T00:31:22;5.97;;;5.37;;
60098;SDS011;62818;49.394;8.686;2023-02-01T00:32:23;7.47;;;5.43;;
60098;SDS011;62818;49.394;8.686;2023-02-01T00:33:23;7.40;;;5.40;;
60098;SDS011;62818;49.394;8.686;2023-02-01T00:34:24;7.57;;;6.30;;
60098;SDS011;62818;49.394;8.686;2023-02-01T00:35:25;6.80;;;5.90;;
60098;SDS011;62818;49.394;8.686;2023-02-01T00:36:25;7.90;;;5.70;;
60098;SDS011;62818;49.394;8.686;2023-02-01T00:37:26;7.30;;;5.40;;
60098;SDS011;62818;49.394;8.686;2023-02-01T00:38:26;8.90;;;5.27;;
60098;SDS011;62818;49.394;8.686;2023-02-01T00:39:28;7.30;;;5.72;;
60098;SDS011;62818;49.394;8.686;2023-02-01T00:40:29;6.30;;;5.20;;
60098;SDS011;62818;49.394;8.686;2023-02-01T00:41:29;6.00;;;5.07;;
60098;SDS011;62818;49.394;8.686;2023-02-01T00:42:30;6.97;;;5.77;;
60098;SDS011;62818;49.394;8.686;2023-02-01T00:43:31;9.45;;;5.85;;
60098;SDS011;62818;49.394;8.686;2023-02-01T00:44:33;8.00;;;5.70;;
60098;SDS011;62818;49.394;8.686;2023-02-01T00:45:35;6.00;;;5.38;;
60098;SDS011;62818;49.394;8.686;2023-02-01T00:46:35;8.23;;;5.83;;
60098;SDS011;62818;49.394;8.686;2023-02-01T00:47:36;8.75;;;6.32;;
60098;SDS011;62818;49.394;8.686;2023-02-01T00:48:37;9.67;;;6.13;;
60098;SDS011;62818;49.394;8.686;2023-02-01T00:50:42;6.40;;;5.47;;
60098;SDS011;62818;49.394;8.686;2023-02-01T00:51:43;6.57;;;5.82;;
60098;SDS011;62818;49.394;8.686;2023-02-01T00:52:43;6.30;;;5.17;;
60098;SDS011;62818;49.394;8.686;2023-02-01T00:53:43;6.13;;;5.50;;
60098;SDS011;62818;49.394;8.686;2023-02-01T00:54:45;7.10;;;5.82;;
60098;SDS011;62818;49.394;8.686;2023-02-01T00:55:46;6.53;;;5.70;;
60098;SDS011;62818;49.394;8.686;2023-02-01T00:56:48;7.07;;;5.55;;
60098;SDS011;62818;49.394;8.686;2023-02-01T00:57:48;7.27;;;5.77;;
60098;SDS011;62818;49.394;8.686;2023-02-01T00:58:49;6.30;;;5.70;;
60098;SDS011;62818;49.394;8.686;2023-02-01T00:59:49;6.93;;;5.53;;
60098;SDS011;62818;49.394;8.686;2023-02-01T01:00:50;6.40;;;5.33;;
60098;SDS011;62818;49.394;8.686;2023-02-01T01:02:00;8.48;;;5.53;;
60098;SDS011;62818;49.394;8.686;2023-02-01T01:03:00;7.83;;;5.70;;
60098;SDS011;62818;49.394;8.686;2023-02-01T01:04:01;8.00;;;6.17;;
60098;SDS011;62818;49.394;8.686;2023-02-01T01:05:01;6.67;;;5.97;;
60098;SDS011;62818;49.394;8.686;2023-02-01T01:06:04;5.97;;;5.35;;
60098;SDS011;62818;49.394;8.686;2023-02-01T01:07:07;6.50;;;5.60;;
60098;SDS011;62818;49.394;8.686;2023-02-01T01:08:08;6.50;;;5.80;;
60098;SDS011;62818;49.394;8.686;2023-02-01T01:09:08;7.63;;;5.53;;
60098;SDS011;62818;49.394;8.686;2023-02-01T01:10:09;7.93;;;5.88;;
60098;SDS011;62818;49.394;8.686;2023-02-01T01:11:12;7.67;;;6.40;;
60098;SDS011;62818;49.394;8.686;2023-02-01T01:12:16;6.28;;;5.68;;
60098;SDS011;62818;49.394;8.686;2023-02-01T01:13:17;9.30;;;5.93;;
60098;SDS011;62818;49.394;8.686;2023-02-01T01:14:17;6.93;;;6.10;;
60098;SDS011;62818;49.394;8.686;2023-02-01T01:15:18;9.77;;;6.10;;
60098;SDS011;62818;49.394;8.686;2023-02-01T01:16:19;7.00;;;6.00;;
60098;SDS011;62818;49.394;8.686;2023-02-01T01:17:21;6.80;;;5.95;;
60098;SDS011;62818;49.394;8.686;2023-02-01T01:18:22;6.77;;;5.63;;
60098;SDS011;62818;49.394;8.686;2023-02-01T01:19:22;6.17;;;5.60;;
60098;SDS011;62818;49.394;8.686;2023-02-01T01:20:23;7.10;;;5.20;;
60098;SDS011;62818;49.394;8.686;2023-02-01T01:21:24;7.60;;;6.30;;
60098;SDS011;62818;49.394;8.686;2023-02-01T01:22:26;6.35;;;5.55;;
60098;SDS011;62818;49.394;8.686;2023-02-01T01:23:27;6.80;;;5.67;;
60098;SDS011;62818;49.394;8.686;2023-02-01T01:24:27;6.35;;;5.38;;
60098;SDS011;62818;49.394;8.686;2023-02-01T01:25:28;9.67;;;5.90;;
60098;SDS011;62818;49.394;8.686;2023-02-01T01:26:29;7.97;;;6.17;;
60098;SDS011;62818;49.394;8.686;2023-02-01T01:27:30;6.63;;;5.60;;
60098;SDS011;62818;49.394;8.686;2023-02-01T01:28:30;8.17;;;5.70;;
60098;SDS011;62818;49.394;8.686;2023-02-01T01:29:31;7.07;;;5.77;;
60098;SDS011;62818;49.394;8.686;2023-02-01T01:30:32;6.53;;;5.40;;
60098;SDS011;62818;49.394;8.686;2023-02-01T01:31:34;8.80;;;6.25;;
60098;SDS011;62818;49.394;8.686;2023-02-01T01:32:35;8.43;;;5.83;;
60098;SDS011;62818;49.394;8.686;2023-02-01T01:33:35;8.33;;;5.33;;
60098;SDS011;62818;49.394;8.686;2023-02-01T01:34:37;7.13;;;6.05;;
60098;SDS011;62818;49.394;8.686;2023-02-01T01:35:37;6.30;;;5.43;;
60098;SDS011;62818;49.394;8.686;2023-02-01T01:36:38;9.03;;;6.17;;
60098;SDS011;62818;49.394;8.686;2023-02-01T01:37:38;6.70;;;6.00;;
60098;SDS011;62818;49.394;8.686;2023-02-01T01:38:39;6.72;;;6.03;;
60098;SDS011;62818;49.394;8.686;2023-02-01T01:39:40;8.32;;;5.60;;
60098;SDS011;62818;49.394;8.686;2023-02-01T01:40:44;7.13;;;5.87;;
60098;SDS011;62818;49.394;8.686;2023-02-01T01:41:46;6.30;;;5.70;;
60098;SDS011;62818;49.394;8.686;2023-02-01T01:42:46;6.50;;;5.90;;
60098;SDS011;62818;49.394;8.686;2023-02-01T01:43:52;8.38;;;5.65;;
60098;SDS011;62818;49.394;8.686;2023-02-01T01:46:37;6.90;;;5.47;;
60098;SDS011;62818;49.394;8.686;2023-02-01T01:47:41;7.53;;;5.97;;
60098;SDS011;62818;49.394;8.686;2023-02-01T01:48:52;8.02;;;6.20;;
60098;SDS011;62818;49.394;8.686;2023-02-01T01:51:50;6.88;;;6.10;;
60098;SDS011;62818;49.394;8.686;2023-02-01T01:52:58;6.68;;;6.07;;
60098;SDS011;62818;49.394;8.686;2023-02-01T01:54:14;6.93;;;5.95;;
60098;SDS011;62818;49.394;8.686;2023-02-01T01:55:21;8.45;;;5.80;;
60098;SDS011;62818;49.394;8.686;2023-02-01T01:56:26;6.20;;;5.60;;
60098;SDS011;62818;49.394;8.686;2023-02-01T01:57:30;8.80;;;6.10;;
60098;SDS011;62818;49.394;8.686;2023-02-01T01:58:37;10.77;;;6.07;;
60098;SDS011;62818;49.394;8.686;2023-02-01T01:59:38;6.65;;;5.68;;
60098;SDS011;62818;49.394;8.686;2023-02-01T02:00:46;8.23;;;6.35;;
60098;SDS011;62818;49.394;8.686;2023-02-01T02:02:49;9.82;;;6.18;;
60098;SDS011;62818;49.394;8.686;2023-02-01T02:03:59;6.97;;;5.88;;
60098;SDS011;62818;49.394;8.686;2023-02-01T02:05:01;7.63;;;5.90;;
60098;SDS011;62818;49.394;8.686;2023-02-01T02:06:02;7.07;;;5.43;;
60098;SDS011;62818;49.394;8.686;2023-02-01T02:07:14;9.95;;;5.90;;
60098;SDS011;62818;49.394;8.686;2023-02-01T02:08:23;8.50;;;5.93;;
60098;SDS011;62818;49.394;8.686;2023-02-01T02:09:27;7.72;;;5.72;;
60098;SDS011;62818;49.394;8.686;2023-02-01T02:10:27;6.70;;;6.00;;
60098;SDS011;62818;49.394;8.686;2023-02-01T02:11:47;7.93;;;6.28;;
60098;SDS011;62818;49.394;8.686;2023-02-01T02:12:47;9.20;;;6.83;;
60098;SDS011;62818;49.394;8.686;2023-02-01T02:13:49;8.23;;;6.32;;
60098;SDS011;62818;49.394;8.686;2023-02-01T02:14:54;6.93;;;6.10;;
60098;SDS011;62818;49.394;8.686;2023-02-01T02:16:03;8.40;;;6.25;;
60098;SDS011;62818;49.394;8.686;2023-02-01T02:17:49;10.20;;;6.25;;
60098;SDS011;62818;49.394;8.686;2023-02-01T02:27:06;8.65;;;6.18;;
60098;SDS011;62818;49.394;8.686;2023-02-01T02:34:55;8.13;;;6.70;;
60098;SDS011;62818;49.394;8.686;2023-02-01T02:37:38;9.23;;;7.00;;
60098;SDS011;62818;49.394;8.686;2023-02-01T02:40:37;12.68;;;7.07;;
60098;SDS011;62818;49.394;8.686;2023-02-01T02:43:28;7.30;;;6.53;;
60098;SDS011;62818;49.394;8.686;2023-02-01T02:45:09;7.90;;;6.53;;
60098;SDS011;62818;49.394;8.686;2023-02-01T02:47:02;10.02;;;7.03;;
60098;SDS011;62818;49.394;8.686;2023-02-01T02:48:26;9.55;;;6.35;;
60098;SDS011;62818;49.394;8.686;2023-02-01T02:49:42;8.13;;;7.13;;
60098;SDS011;62818;49.394;8.686;2023-02-01T02:53:03;8.52;;;7.20;;
60098;SDS011;62818;49.394;8.686;2023-02-01T02:54:32;8.43;;;7.32;;
60098;SDS011;62818;49.394;8.686;2023-02-01T02:55:46;9.40;;;7.10;;
60098;SDS011;62818;49.394;8.686;2023-02-01T02:56:49;9.48;;;7.03;;
60098;SDS011;62818;49.394;8.686;2023-02-01T02:59:33;8.60;;;6.70;;
60098;SDS011;62818;49.394;8.686;2023-02-01T03:00:56;8.50;;;6.82;;
60098;SDS011;62818;49.394;8.686;2023-02-01T03:02:16;10.77;;;7.32;;
60098;SDS011;62818;49.394;8.686;2023-02-01T03:03:40;8.73;;;7.10;;
60098;SDS011;62818;49.394;8.686;2023-02-01T03:06:00;9.50;;;7.10;;
60098;SDS011;62818;49.394;8.686;2023-02-01T03:07:11;13.70;;;7.10;;
60098;SDS011;62818;49.394;8.686;2023-02-01T03:09:45;7.90;;;6.38;;
60098;SDS011;62818;49.394;8.686;2023-02-01T03:11:02;12.20;;;6.70;;
60098;SDS011;62818;49.394;8.686;2023-02-01T03:12:09;7.60;;;6.15;;
60098;SDS011;62818;49.394;8.686;2023-02-01T03:14:56;8.35;;;6.47;;
60098;SDS011;62818;49.394;8.686;2023-02-01T03:16:22;10.75;;;6.72;;
60098;SDS011;62818;49.394;8.686;2023-02-01T03:17:44;9.65;;;6.53;;
60098;SDS011;62818;49.394;8.686;2023-02-01T03:19:54;8.00;;;6.57;;
60098;SDS011;62818;49.394;8.686;2023-02-01T03:21:02;8.40;;;6.95;;
60098;SDS011;62818;49.394;8.686;2023-02-01T03:22:12;10.85;;;7.03;;
60098;SDS011;62818;49.394;8.686;2023-02-01T03:23:18;9.55;;;6.80;;
60098;SDS011;62818;49.394;8.686;2023-02-01T03:24:39;8.45;;;6.53;;
60098;SDS011;62818;49.394;8.686;2023-02-01T03:25:42;8.25;;;6.43;;
60098;SDS011;62818;49.394;8.686;2023-02-01T03:26:55;10.45;;;6.72;;
60098;SDS011;62818;49.394;8.686;2023-02-01T03:28:07;7.88;;;6.70;;
60098;SDS011;62818;49.394;8.686;2023-02-01T03:29:12;9.40;;;6.80;;
60098;SDS011;62818;49.394;8.686;2023-02-01T03:31:22;9.70;;;6.40;;
60098;SDS011;62818;49.394;8.686;2023-02-01T03:32:24;8.63;;;6.70;;
60098;SDS011;62818;49.394;8.686;2023-02-01T03:33:25;9.00;;;6.93;;
60098;SDS011;62818;49.394;8.686;2023-02-01T03:34:30;8.40;;;6.50;;
60098;SDS011;62818;49.394;8.686;2023-02-01T03:35:32;8.33;;;6.63;;
60098;SDS011;62818;49.394;8.686;2023-02-01T03:36:46;12.07;;;7.03;;
60098;SDS011;62818;49.394;8.686;2023-02-01T03:38:01;10.13;;;6.53;;
60098;SDS011;62818;49.394;8.686;2023-02-01T03:39:31;9.00;;;6.72;;
60098;SDS011;62818;49.394;8.686;2023-02-01T03:40:39;8.90;;;6.77;;
60098;SDS011;62818;49.394;8.686;2023-02-01T03:42:55;8.93;;;6.80;;
60098;SDS011;62818;49.394;8.686;2023-02-01T03:45:25;8.07;;;6.55;;
60098;SDS011;62818;49.394;8.686;2023-02-01T03:46:37;10.02;;;6.97;;
60098;SDS011;62818;49.394;8.686;2023-02-01T03:47:45;10.32;;;6.82;;
60098;SDS011;62818;49.394;8.686;2023-02-01T03:48:53;8.32;;;6.88;;
60098;SDS011;62818;49.394;8.686;2023-02-01T03:49:57;13.55;;;7.43;;
60098;SDS011;62818;49.394;8.686;2023-02-01T03:51:04;8.18;;;7.03;;
60098;SDS011;62818;49.394;8.686;2023-02-01T03:52:11;8.48;;;7.30;;
60098;SDS011;62818;49.394;8.686;2023-02-01T03:53:19;9.18;;;7.25;;
60098;SDS011;62818;49.394;8.686;2023-02-01T03:54:24;9.50;;;7.30;;
60098;SDS011;62818;49.394;8.686;2023-02-01T03:55:28;10.02;;;7.90;;
60098;SDS011;62818;49.394;8.686;2023-02-01T03:56:31;11.90;;;7.85;;
60098;SDS011;62818;49.394;8.686;2023-02-01T03:57:40;10.25;;;7.05;;
60098;SDS011;62818;49.394;8.686;2023-02-01T03:58:48;8.73;;;6.78;;
60098;SDS011;62818;49.394;8.686;2023-02-01T04:00:06;8.90;;;7.20;;
60098;SDS011;62818;49.394;8.686;2023-02-01T04:01:21;11.40;;;7.60;;
60098;SDS011;62818;49.394;8.686;2023-02-01T04:02:22;10.00;;;7.80;;
60098;SDS011;62818;49.394;8.686;2023-02-01T04:03:23;9.50;;;7.50;;
60098;SDS011;62818;49.394;8.686;2023-02-01T04:04:25;7.93;;;7.10;;
60098;SDS011;62818;49.394;8.686;2023-02-01T04:05:25;8.90;;;7.90;;
60098;SDS011;62818;49.394;8.686;2023-02-01T04:06:26;10.00;;;7.23;;
60098;SDS011;62818;49.394;8.686;2023-02-01T04:07:26;8.47;;;6.83;;
60098;SDS011;62818;49.394;8.686;2023-02-01T04:08:27;8.73;;;7.83;;
60098;SDS011;62818;49.394;8.686;2023-02-01T04:09:27;9.93;;;7.00;;
60098;SDS011;62818;49.394;8.686;2023-02-01T04:10:28;11.13;;;7.13;;
60098;SDS011;62818;49.394;8.686;2023-02-01T04:11:28;13.50;;;7.33;;
60098;SDS011;62818;49.394;8.686;2023-02-01T04:12:29;10.43;;;7.10;;
60098;SDS011;62818;49.394;8.686;2023-02-01T04:13:29;10.20;;;7.40;;
60098;SDS011;62818;49.394;8.686;2023-02-01T04:14:30;14.20;;;7.33;;
60098;SDS011;62818;49.394;8.686;2023-02-01T04:15:30;9.13;;;7.33;;
60098;SDS011;62818;49.394;8.686;2023-02-01T04:16:31;9.40;;;7.10;;
60098;SDS011;62818;49.394;8.686;2023-02-01T04:17:32;10.00;;;7.65;;
60098;SDS011;62818;49.394;8.686;2023-02-01T04:18:33;9.30;;;6.73;;
60098;SDS011;62818;49.394;8.686;2023-02-01T04:19:33;10.83;;;7.10;;
60098;SDS011;62818;49.394;8.686;2023-02-01T04:20:34;11.63;;;6.90;;
60098;SDS011;62818;49.394;8.686;2023-02-01T04:21:34;10.83;;;7.40;;
60098;SDS011;62818;49.394;8.686;2023-02-01T04:22:35;11.20;;;7.10;;
60098;SDS011;62818;49.394;8.686;2023-02-01T04:23:35;10.17;;;7.00;;
60098;SDS011;62818;49.394;8.686;2023-02-01T04:24:36;7.65;;;6.85;;
60098;SDS011;62818;49.394;8.686;2023-02-01T04:25:37;9.67;;;6.67;;
60098;SDS011;62818;49.394;8.686;2023-02-01T04:26:37;10.17;;;7.03;;
60098;SDS011;62818;49.394;8.686;2023-02-01T04:27:38;10.70;;;7.47;;
60098;SDS011;62818;49.394;8.686;2023-02-01T04:28:38;8.23;;;6.83;;
60098;SDS011;62818;49.394;8.686;2023-02-01T04:29:39;9.57;;;7.33;;
60098;SDS011;62818;49.394;8.686;2023-02-01T04:30:39;10.77;;;6.83;;
60098;SDS011;62818;49.394;8.686;2023-02-01T04:31:40;11.37;;;6.57;;
60098;SDS011;62818;49.394;8.686;2023-02-01T04:32:41;9.63;;;7.20;;
60098;SDS011;62818;49.394;8.686;2023-02-01T04:33:41;8.63;;;7.20;;
60098;SDS011;62818;49.394;8.686;2023-02-01T04:34:42;10.02;;;7.05;;
60098;SDS011;62818;49.394;8.686;2023-02-01T04:35:43;11.70;;;7.07;;
60098;SDS011;62818;49.394;8.686;2023-02-01T04:36:44;11.77;;;7.27;;
60098;SDS011;62818;49.394;8.686;2023-02-01T04:37:44;8.47;;;6.67;;
60098;SDS011;62818;49.394;8.686;2023-02-01T04:38:45;9.93;;;7.00;;
60098;SDS011;62818;49.394;8.686;2023-02-01T04:39:45;9.20;;;7.40;;
60098;SDS011;62818;49.394;8.686;2023-02-01T04:40:48;12.87;;;7.37;;
60098;SDS011;62818;49.394;8.686;2023-02-01T04:41:49;8.32;;;6.65;;
60098;SDS011;62818;49.394;8.686;2023-02-01T04:42:50;10.33;;;7.27;;
60098;SDS011;62818;49.394;8.686;2023-02-01T04:43:50;10.73;;;7.43;;
60098;SDS011;62818;49.394;8.686;2023-02-01T04:44:52;10.95;;;7.40;;
60098;SDS011;62818;49.394;8.686;2023-02-01T04:45:53;9.00;;;7.17;;
60098;SDS011;62818;49.394;8.686;2023-02-01T04:46:54;10.82;;;7.22;;
60098;SDS011;62818;49.394;8.686;2023-02-01T04:47:54;11.03;;;7.80;;
60098;SDS011;62818;49.394;8.686;2023-02-01T04:48:54;10.13;;;7.10;;
60098;SDS011;62818;49.394;8.686;2023-02-01T04:49:55;9.93;;;7.27;;
60098;SDS011;62818;49.394;8.686;2023-02-01T04:50:55;11.90;;;6.93;;
60098;SDS011;62818;49.394;8.686;2023-02-01T04:51:56;11.43;;;7.50;;
60098;SDS011;62818;49.394;8.686;2023-02-01T04:52:56;10.03;;;6.40;;
60098;SDS011;62818;49.394;8.686;2023-02-01T04:53:57;12.50;;;7.00;;
60098;SDS011;62818;49.394;8.686;2023-02-01T04:54:57;9.77;;;7.00;;
60098;SDS011;62818;49.394;8.686;2023-02-01T04:55:59;14.60;;;7.53;;
60098;SDS011;62818;49.394;8.686;2023-02-01T04:57:00;11.23;;;7.27;;
60098;SDS011;62818;49.394;8.686;2023-02-01T04:58:01;12.23;;;7.40;;
60098;SDS011;62818;49.394;8.686;2023-02-01T04:59:01;11.17;;;7.20;;
60098;SDS011;62818;49.394;8.686;2023-02-01T05:00:05;9.85;;;7.70;;
60098;SDS011;62818;49.394;8.686;2023-02-01T05:01:09;10.00;;;7.20;;
60098;SDS011;62818;49.394;8.686;2023-02-01T05:02:10;12.50;;;7.73;;
60098;SDS011;62818;49.394;8.686;2023-02-01T05:03:10;12.77;;;7.53;;
60098;SDS011;62818;49.394;8.686;2023-02-01T05:04:11;10.43;;;6.67;;
60098;SDS011;62818;49.394;8.686;2023-02-01T05:05:11;12.07;;;7.37;;
60098;SDS011;62818;49.394;8.686;2023-02-01T05:06:11;9.37;;;6.77;;
60098;SDS011;62818;49.394;8.686;2023-02-01T05:07:12;11.77;;;7.23;;
60098;SDS011;62818;49.394;8.686;2023-02-01T05:08:13;11.43;;;6.97;;
60098;SDS011;62818;49.394;8.686;2023-02-01T05:09:13;7.50;;;6.70;;
60098;SDS011;62818;49.394;8.686;2023-02-01T05:10:13;11.77;;;7.07;;
60098;SDS011;62818;49.394;8.686;2023-02-01T05:11:14;11.27;;;7.17;;
60098;SDS011;62818;49.394;8.686;2023-02-01T05:12:33;10.70;;;7.18;;
60098;SDS011;62818;49.394;8.686;2023-02-01T05:13:52;9.57;;;6.75;;
60098;SDS011;62818;49.394;8.686;2023-02-01T05:14:53;10.83;;;7.53;;
60098;SDS011;62818;49.394;8.686;2023-02-01T05:15:53;8.90;;;7.53;;
60098;SDS011;62818;49.394;8.686;2023-02-01T05:16:54;12.27;;;7.37;;
60098;SDS011;62818;49.394;8.686;2023-02-01T05:17:54;10.27;;;6.53;;
60098;SDS011;62818;49.394;8.686;2023-02-01T05:18:55;8.63;;;6.53;;
60098;SDS011;62818;49.394;8.686;2023-02-01T05:19:55;8.73;;;6.67;;
60098;SDS011;62818;49.394;8.686;2023-02-01T05:20:56;10.97;;;6.90;;
60098;SDS011;62818;49.394;8.686;2023-02-01T05:21:56;10.03;;;7.13;;
60098;SDS011;62818;49.394;8.686;2023-02-01T05:22:57;10.40;;;6.57;;
60098;SDS011;62818;49.394;8.686;2023-02-01T05:23:57;8.57;;;6.63;;
60098;SDS011;62818;49.394;8.686;2023-02-01T05:25:10;9.10;;;6.38;;
60098;SDS011;62818;49.394;8.686;2023-02-01T05:26:11;10.17;;;6.63;;
60098;SDS011;62818;49.394;8.686;2023-02-01T05:27:11;8.17;;;6.43;;
60098;SDS011;62818;49.394;8.686;2023-02-01T05:28:12;9.10;;;5.73;;
60098;SDS011;62818;49.394;8.686;2023-02-01T05:29:12;11.07;;;6.10;;
60098;SDS011;62818;49.394;8.686;2023-02-01T05:30:13;6.90;;;6.20;;
60098;SDS011;62818;49.394;8.686;2023-02-01T05:31:14;7.43;;;5.53;;
60098;SDS011;62818;49.394;8.686;2023-02-01T05:32:14;9.70;;;6.07;;
60098;SDS011;62818;49.394;8.686;2023-02-01T05:33:15;8.07;;;6.30;;
60098;SDS011;62818;49.394;8.686;2023-02-01T05:34:15;7.40;;;5.67;;
60098;SDS011;62818;49.394;8.686;2023-02-01T05:35:16;8.10;;;5.87;;
60098;SDS011;62818;49.394;8.686;2023-02-01T05:36:16;10.53;;;6.20;;
60098;SDS011;62818;49.394;8.686;2023-02-01T05:37:17;8.73;;;5.53;;
60098;SDS011;62818;49.394;8.686;2023-02-01T05:38:18;9.23;;;5.57;;
60098;SDS011;62818;49.394;8.686;2023-02-01T05:39:18;7.37;;;6.17;;
60098;SDS011;62818;49.394;8.686;2023-02-01T05:40:19;8.67;;;5.80;;
60098;SDS011;62818;49.394;8.686;2023-02-01T05:41:19;8.33;;;5.57;;
60098;SDS011;62818;49.394;8.686;2023-02-01T05:42:19;10.27;;;6.37;;
60098;SDS011;62818;49.394;8.686;2023-02-01T05:43:20;8.10;;;5.97;;
60098;SDS011;62818;49.394;8.686;2023-02-01T05:44:20;8.00;;;5.93;;
60098;SDS011;62818;49.394;8.686;2023-02-01T05:45:21;6.73;;;5.60;;
60098;SDS011;62818;49.394;8.686;2023-02-01T05:46:22;10.63;;;6.20;;
60098;SDS011;62818;49.394;8.686;2023-02-01T05:47:23;10.43;;;6.53;;
60098;SDS011;62818;49.394;8.686;2023-02-01T05:48:24;6.60;;;5.87;;
60098;SDS011;62818;49.394;8.686;2023-02-01T05:49:24;7.57;;;5.77;;
60098;SDS011;62818;49.394;8.686;2023-02-01T05:50:25;11.73;;;6.30;;
60098;SDS011;62818;49.394;8.686;2023-02-01T05:51:25;7.70;;;5.93;;
60098;SDS011;62818;49.394;8.686;2023-02-01T05:52:26;7.40;;;6.17;;
60098;SDS011;62818;49.394;8.686;2023-02-01T05:53:26;8.07;;;5.87;;
60098;SDS011;62818;49.394;8.686;2023-02-01T05:54:27;8.27;;;5.83;;
60098;SDS011;62818;49.394;8.686;2023-02-01T05:55:27;9.37;;;6.03;;
60098;SDS011;62818;49.394;8.686;2023-02-01T05:56:28;8.90;;;6.07;;
60098;SDS011;62818;49.394;8.686;2023-02-01T05:57:28;9.43;;;6.30;;
60098;SDS011;62818;49.394;8.686;2023-02-01T05:58:29;7.35;;;6.47;;
60098;SDS011;62818;49.394;8.686;2023-02-01T05:59:30;9.57;;;6.43;;
60098;SDS011;62818;49.394;8.686;2023-02-01T06:00:31;10.13;;;6.83;;
60098;SDS011;62818;49.394;8.686;2023-02-01T06:01:32;10.73;;;6.85;;
60098;SDS011;62818;49.394;8.686;2023-02-01T06:02:32;10.33;;;6.53;;
60098;SDS011;62818;49.394;8.686;2023-02-01T06:03:33;8.53;;;6.37;;
60098;SDS011;62818;49.394;8.686;2023-02-01T06:04:33;11.60;;;6.47;;
60098;SDS011;62818;49.394;8.686;2023-02-01T06:05:34;8.73;;;6.40;;
60098;SDS011;62818;49.394;8.686;2023-02-01T06:06:34;12.27;;;7.00;;
60098;SDS011;62818;49.394;8.686;2023-02-01T06:07:36;11.13;;;7.43;;
60098;SDS011;62818;49.394;8.686;2023-02-01T06:08:37;12.70;;;7.10;;
60098;SDS011;62818;49.394;8.686;2023-02-01T06:09:40;9.48;;;6.93;;
60098;SDS011;62818;49.394;8.686;2023-02-01T06:10:40;9.97;;;6.90;;
60098;SDS011;62818;49.394;8.686;2023-02-01T06:11:41;13.40;;;7.97;;
60098;SDS011;62818;49.394;8.686;2023-02-01T06:12:41;9.77;;;7.03;;
60098;SDS011;62818;49.394;8.686;2023-02-01T06:13:42;10.27;;;6.67;;
60098;SDS011;62818;49.394;8.686;2023-02-01T06:14:42;13.53;;;6.53;;
60098;SDS011;62818;49.394;8.686;2023-02-01T06:15:43;10.70;;;6.83;;
60098;SDS011;62818;49.394;8.686;2023-02-01T06:16:44;9.13;;;6.80;;
60098;SDS011;62818;49.394;8.686;2023-02-01T06:17:46;8.82;;;6.80;;
60098;SDS011;62818;49.394;8.686;2023-02-01T06:18:47;10.30;;;6.60;;
60098;SDS011;62818;49.394;8.686;2023-02-01T06:19:48;12.50;;;6.97;;
60098;SDS011;62818;49.394;8.686;2023-02-01T06:20:52;11.67;;;6.37;;
60098;SDS011;62818;49.394;8.686;2023-02-01T06:21:55;8.15;;;6.60;;
60098;SDS011;62818;49.394;8.686;2023-02-01T06:22:55;16.30;;;7.37;;
60098;SDS011;62818;49.394;8.686;2023-02-01T06:23:56;11.53;;;7.53;;
60098;SDS011;62818;49.394;8.686;2023-02-01T06:24:57;9.85;;;6.95;;
60098;SDS011;62818;49.394;8.686;2023-02-01T06:26:02;10.63;;;6.93;;
60098;SDS011;62818;49.394;8.686;2023-02-01T06:27:07;10.70;;;6.95;;
60098;SDS011;62818;49.394;8.686;2023-02-01T06:29:09;8.80;;;6.38;;
60098;SDS011;62818;49.394;8.686;2023-02-01T06:30:10;12.80;;;7.75;;
60098;SDS011;62818;49.394;8.686;2023-02-01T06:31:15;14.75;;;7.50;;
60098;SDS011;62818;49.394;8.686;2023-02-01T06:32:15;18.50;;;7.40;;
60098;SDS011;62818;49.394;8.686;2023-02-01T06:34:17;14.88;;;7.10;;
60098;SDS011;62818;49.394;8.686;2023-02-01T06:35:19;11.65;;;8.07;;
60098;SDS011;62818;49.394;8.686;2023-02-01T06:36:19;13.30;;;7.20;;
60098;SDS011;62818;49.394;8.686;2023-02-01T06:37:21;16.00;;;7.90;;
60098;SDS011;62818;49.394;8.686;2023-02-01T06:38:25;16.00;;;7.90;;
60098;SDS011;62818;49.394;8.686;2023-02-01T06:39:26;11.68;;;7.55;;
60098;SDS011;62818;49.394;8.686;2023-02-01T06:40:28;14.10;;;7.70;;
60098;SDS011;62818;49.394;8.686;2023-02-01T06:41:28;9.50;;;6.93;;
60098;SDS011;62818;49.394;8.686;2023-02-01T06:42:29;13.13;;;7.67;;
60098;SDS011;62818;49.394;8.686;2023-02-01T06:43:30;13.00;;;6.70;;
60098;SDS011;62818;49.394;8.686;2023-02-01T06:44:32;11.85;;;7.35;;
60098;SDS011;62818;49.394;8.686;2023-02-01T06:45:33;12.27;;;7.47;;
60098;SDS011;62818;49.394;8.686;2023-02-01T06:46:33;12.33;;;6.93;;
60098;SDS011;62818;49.394;8.686;2023-02-01T06:47:34;18.97;;;7.03;;
60098;SDS011;62818;49.394;8.686;2023-02-01T06:48:34;10.53;;;6.80;;
60098;SDS011;62818;49.394;8.686;2023-02-01T06:49:35;17.70;;;7.80;;
60098;SDS011;62818;49.394;8.686;2023-02-01T06:50:35;12.87;;;7.33;;
60098;SDS011;62818;49.394;8.686;2023-02-01T06:51:36;13.20;;;7.40;;
60098;SDS011;62818;49.394;8.686;2023-02-01T06:52:36;10.43;;;6.80;;
60098;SDS011;62818;49.394;8.686;2023-02-01T06:53:37;12.57;;;7.73;;
60098;SDS011;62818;49.394;8.686;2023-02-01T06:54:37;11.97;;;7.53;;
60098;SDS011;62818;49.394;8.686;2023-02-01T06:55:38;11.73;;;7.63;;
60098;SDS011;62818;49.394;8.686;2023-02-01T06:56:38;17.97;;;7.60;;
60098;SDS011;62818;49.394;8.686;2023-02-01T06:57:39;12.57;;;7.53;;
60098;SDS011;62818;49.394;8.686;2023-02-01T06:58:39;20.47;;;12.00;;
60098;SDS011;62818;49.394;8.686;2023-02-01T06:59:40;14.43;;;8.20;;
60098;SDS011;62818;49.394;8.686;2023-02-01T07:00:40;18.43;;;8.23;;
60098;SDS011;62818;49.394;8.686;2023-02-01T07:01:40;13.30;;;7.73;;
60098;SDS011;62818;49.394;8.686;2023-02-01T07:02:41;13.63;;;7.83;;